createdAt,value
2023-04-07T00:03:07.486Z,1.85
2023-04-07T00:13:51.660Z,1.70
2023-04-07T00:19:13.753Z,1.50
2023-04-07T00:24:35.923Z,1.80
2023-04-07T00:29:57.978Z,1.80
2023-04-07T00:35:19.935Z,1.30
2023-04-07T00:40:41.766Z,1.40
2023-04-07T00:46:04.039Z,1.50
2023-04-07T00:51:27.379Z,1.50
2023-04-07T00:56:49.275Z,1.63
2023-04-07T01:02:22.511Z,1.40
2023-04-07T01:07:46.995Z,1.58
2023-04-07T01:13:25.725Z,1.50
2023-04-07T01:18:51.733Z,1.27
2023-04-07T01:24:13.603Z,1.48
2023-04-07T01:29:38.143Z,1.55
2023-04-07T01:35:00.635Z,1.30
2023-04-07T01:40:23.278Z,1.45
2023-04-07T01:45:46.474Z,1.50
2023-04-07T01:51:09.162Z,1.77
2023-04-07T01:56:31.221Z,1.33
2023-04-07T02:01:53.233Z,1.20
2023-04-07T02:07:35.534Z,1.10
2023-04-07T02:12:59.328Z,1.10
2023-04-07T02:18:22.450Z,1.20
2023-04-07T02:23:44.572Z,1.30
2023-04-07T02:29:06.698Z,1.20
2023-04-07T02:34:28.520Z,1.23
2023-04-07T02:39:50.542Z,1.15
2023-04-07T02:45:13.074Z,1.30
2023-04-07T02:50:34.944Z,1.40
2023-04-07T02:55:56.850Z,1.20
2023-04-07T03:01:18.828Z,1.15
2023-04-07T03:06:40.678Z,1.10
2023-04-07T03:12:02.717Z,1.15
2023-04-07T03:17:24.661Z,1.23
2023-04-07T03:22:47.762Z,1.35
2023-04-07T03:28:09.615Z,1.17
2023-04-07T03:33:31.443Z,1.30
2023-04-07T03:38:53.214Z,1.00
2023-04-07T03:44:15.120Z,1.08
2023-04-07T03:49:38.641Z,1.10
2023-04-07T03:55:00.763Z,1.00
2023-04-07T04:00:22.798Z,1.15
2023-04-07T04:05:44.587Z,1.02
2023-04-07T04:11:06.395Z,1.27
2023-04-07T04:16:28.480Z,1.35
2023-04-07T04:21:51.325Z,1.02
2023-04-07T04:27:13.198Z,1.00
2023-04-07T04:32:35.224Z,1.00
2023-04-07T04:37:57.158Z,1.08
2023-04-07T04:43:19.083Z,1.15
2023-04-07T04:48:41.265Z,0.98
2023-04-07T04:54:04.324Z,0.90
2023-04-07T04:59:27.372Z,0.90
2023-04-07T05:04:49.329Z,0.90
2023-04-07T05:10:11.873Z,0.75
2023-04-07T05:15:33.753Z,0.77
2023-04-07T05:20:55.809Z,0.68
2023-04-07T05:26:17.935Z,0.98
2023-04-07T05:31:41.637Z,1.08
2023-04-07T05:37:03.531Z,1.00
2023-04-07T05:42:25.511Z,0.98
2023-04-07T05:47:50.330Z,0.98
2023-04-07T05:53:12.565Z,1.07
2023-04-07T05:58:34.364Z,0.80
2023-04-07T06:03:56.590Z,1.00
2023-04-07T06:09:18.642Z,1.00
2023-04-07T06:14:40.733Z,0.90
2023-04-07T06:20:02.739Z,1.02
2023-04-07T06:25:24.591Z,0.88
2023-04-07T06:30:47.084Z,0.80
2023-04-07T06:36:08.955Z,0.85
2023-04-07T06:41:32.044Z,0.90
2023-04-07T06:46:55.716Z,0.80
2023-04-07T06:52:17.559Z,1.08
2023-04-07T06:57:39.413Z,0.90
2023-04-07T07:03:01.476Z,1.10
2023-04-07T07:08:23.940Z,1.30
2023-04-07T07:13:46.416Z,1.23
2023-04-07T07:19:08.651Z,1.30
2023-04-07T07:24:31.400Z,1.00
2023-04-07T07:29:53.381Z,1.30
2023-04-07T07:35:16.325Z,1.38
2023-04-07T07:40:38.226Z,1.45
2023-04-07T07:46:00.138Z,1.90
2023-04-07T07:51:22.279Z,1.90
2023-04-07T07:56:44.208Z,1.98
2023-04-07T08:02:07.188Z,1.60
2023-04-07T08:07:29.320Z,1.40
2023-04-07T08:12:51.489Z,1.30
2023-04-07T08:18:13.499Z,1.40
2023-04-07T08:23:35.683Z,1.48
2023-04-07T08:28:58.769Z,1.20
2023-04-07T08:34:21.547Z,1.52
2023-04-07T08:39:43.451Z,1.30
2023-04-07T08:45:07.357Z,1.20
2023-04-07T08:50:29.622Z,1.13
2023-04-07T08:55:51.667Z,1.02
2023-04-07T09:01:14.671Z,1.00
2023-04-07T09:06:37.295Z,1.45
2023-04-07T09:11:59.224Z,1.10
2023-04-07T09:17:21.913Z,0.95
2023-04-07T09:22:47.825Z,1.08
2023-04-07T09:28:09.709Z,0.90
2023-04-07T09:33:31.629Z,1.40
2023-04-07T09:38:54.001Z,1.02
2023-04-07T09:44:16.455Z,1.00
2023-04-07T09:49:53.942Z,1.23
2023-04-07T09:55:16.664Z,0.80
2023-04-07T10:00:38.555Z,1.25
2023-04-07T10:06:01.531Z,1.10
2023-04-07T10:11:23.589Z,1.00
2023-04-07T10:16:47.613Z,1.23
2023-04-07T10:22:13.629Z,1.10
2023-04-07T10:27:58.806Z,0.82
2023-04-07T10:33:58.444Z,1.00
2023-04-07T10:39:21.349Z,1.40
2023-04-07T10:44:43.254Z,1.25
2023-04-07T10:50:22.505Z,1.50
2023-04-07T10:55:45.878Z,1.50
2023-04-07T11:01:08.001Z,1.60
2023-04-07T11:06:29.912Z,1.50
2023-04-07T11:11:52.487Z,1.65
2023-04-07T11:17:20.445Z,1.15
2023-04-07T11:22:42.283Z,1.42
2023-04-07T11:28:05.046Z,1.38
2023-04-07T11:33:29.162Z,1.52
2023-04-07T11:38:50.992Z,1.00
2023-04-07T11:44:13.409Z,1.30
2023-04-07T11:49:35.266Z,1.23
2023-04-07T11:54:59.652Z,1.20
2023-04-07T12:00:21.750Z,1.05
2023-04-07T12:05:45.052Z,1.15
2023-04-07T12:11:08.280Z,0.90
2023-04-07T12:16:30.160Z,1.60
2023-04-07T12:21:52.520Z,0.88
2023-04-07T12:27:14.351Z,1.10
2023-04-07T12:32:36.342Z,1.05
2023-04-07T12:37:58.341Z,0.82
2023-04-07T12:43:20.180Z,1.02
2023-04-07T12:48:42.114Z,1.05
2023-04-07T12:54:04.641Z,1.02
2023-04-07T12:59:26.618Z,0.90
2023-04-07T13:04:48.358Z,0.80
2023-04-07T13:10:10.692Z,0.85
2023-04-07T13:15:32.558Z,0.90
2023-04-07T13:21:10.717Z,0.60
2023-04-07T13:26:36.454Z,0.68
2023-04-07T13:32:13.338Z,0.90
2023-04-07T13:37:35.179Z,0.65
2023-04-07T13:42:57.846Z,0.68
2023-04-07T13:48:19.747Z,0.70
2023-04-07T13:53:41.822Z,0.73
2023-04-07T13:59:03.887Z,1.00
2023-04-07T14:04:26.118Z,0.95
2023-04-07T14:09:48.693Z,0.80
2023-04-07T14:15:10.690Z,0.98
2023-04-07T14:20:33.695Z,0.80
2023-04-07T14:25:55.991Z,0.77
2023-04-07T14:31:18.061Z,0.60
2023-04-07T14:36:39.951Z,0.80
2023-04-07T14:42:02.010Z,0.50
2023-04-07T14:47:24.036Z,0.90
2023-04-07T14:52:45.993Z,0.60
2023-04-07T14:58:08.584Z,0.90
2023-04-07T15:03:30.839Z,0.52
2023-04-07T15:08:53.062Z,0.70
2023-04-07T15:14:15.044Z,0.90
2023-04-07T15:19:37.077Z,0.50
2023-04-07T15:24:59.946Z,0.60
2023-04-07T15:30:21.981Z,0.60
2023-04-07T15:35:44.449Z,0.70
2023-04-07T15:41:06.796Z,0.80
2023-04-07T15:46:28.896Z,0.90
2023-04-07T15:51:51.538Z,0.55
2023-04-07T15:57:13.550Z,0.65
2023-04-07T16:02:37.414Z,0.80
2023-04-07T16:07:59.331Z,0.60
2023-04-07T16:13:21.338Z,0.60
2023-04-07T16:18:43.285Z,0.63
2023-04-07T16:24:05.738Z,0.75
2023-04-07T16:29:28.192Z,0.50
2023-04-07T16:34:50.057Z,0.73
2023-04-07T16:40:12.197Z,0.80
2023-04-07T16:45:33.965Z,0.88
2023-04-07T16:50:55.823Z,0.90
2023-04-07T16:56:18.157Z,0.90
2023-04-07T17:01:42.178Z,0.85
2023-04-07T17:07:04.478Z,0.95
2023-04-07T17:12:26.678Z,0.63
2023-04-07T17:17:48.839Z,0.73
2023-04-07T17:23:11.141Z,0.80
2023-04-07T17:28:33.105Z,0.68
2023-04-07T17:33:54.937Z,0.50
2023-04-07T17:39:17.627Z,0.70
2023-04-07T17:44:39.545Z,1.00
2023-04-07T17:50:02.241Z,0.80
2023-04-07T17:55:24.383Z,0.93
2023-04-07T18:00:46.404Z,0.70
2023-04-07T18:06:11.012Z,0.60
2023-04-07T18:11:33.097Z,0.75
2023-04-07T18:16:55.847Z,0.88
2023-04-07T18:22:18.255Z,0.85
2023-04-07T18:27:40.073Z,1.67
2023-04-07T18:33:02.028Z,2.25
2023-04-07T18:38:23.930Z,3.03
2023-04-07T18:43:48.973Z,2.40
2023-04-07T18:49:11.037Z,3.45
2023-04-07T18:54:32.926Z,2.50
2023-04-07T18:59:55.308Z,2.20
2023-04-07T19:05:18.530Z,2.05
2023-04-07T19:10:43.988Z,2.35
2023-04-07T19:16:07.831Z,1.80
2023-04-07T19:21:29.696Z,2.08
2023-04-07T19:26:53.022Z,2.22
2023-04-07T19:32:14.948Z,2.00
2023-04-07T19:37:38.240Z,1.65
2023-04-07T19:43:00.798Z,1.92
2023-04-07T19:48:22.852Z,2.05
2023-04-07T19:53:44.662Z,2.22
2023-04-07T19:59:08.474Z,2.10
2023-04-07T20:04:30.631Z,1.70
2023-04-07T20:09:54.246Z,1.88
2023-04-07T20:15:17.139Z,1.50
2023-04-07T20:20:39.000Z,1.73
2023-04-07T20:26:02.207Z,1.30
2023-04-07T20:31:24.258Z,1.73
2023-04-07T20:36:46.812Z,1.20
2023-04-07T20:42:08.762Z,1.80
2023-04-07T20:47:31.579Z,1.40
2023-04-07T20:52:54.108Z,2.17
2023-04-07T20:58:17.897Z,2.00
2023-04-07T21:03:40.009Z,1.92
2023-04-07T21:09:02.799Z,1.63
2023-04-07T21:14:24.645Z,1.63
2023-04-07T21:19:46.682Z,2.13
2023-04-07T21:25:08.981Z,1.67
2023-04-07T21:30:31.591Z,1.42
2023-04-07T21:35:55.315Z,1.23
2023-04-07T21:41:17.519Z,1.58
2023-04-07T21:46:39.462Z,1.50
2023-04-07T21:52:01.387Z,1.23
2023-04-07T21:57:23.690Z,1.20
2023-04-07T22:02:45.888Z,1.35
2023-04-07T22:08:08.009Z,1.20
2023-04-07T22:13:29.858Z,1.15
2023-04-07T22:18:51.892Z,0.77
2023-04-07T22:24:13.727Z,0.80
2023-04-07T22:29:35.616Z,1.33
2023-04-07T22:34:58.196Z,1.00
2023-04-07T22:40:20.031Z,1.00
2023-04-07T22:45:42.049Z,1.23
2023-04-07T22:51:03.981Z,1.05
2023-04-07T22:56:26.738Z,0.80
2023-04-07T23:01:48.766Z,0.75
2023-04-07T23:07:10.754Z,0.90
2023-04-07T23:12:32.580Z,0.63
2023-04-07T23:17:54.968Z,0.80
2023-04-07T23:23:16.933Z,0.70
2023-04-07T23:28:38.784Z,0.80
2023-04-07T23:34:01.565Z,0.70
2023-04-07T23:39:23.427Z,0.80
2023-04-07T23:44:45.331Z,0.70
2023-04-07T23:50:07.978Z,0.70
2023-04-07T23:55:29.812Z,0.45
